Time;durP1;ratioP1;P1;durP2;ratioP2;P2;SDS_P1;SDS_P2;PMS_P1;PMS_P2;Temp;Humidity;BMP_temperature;BMP_pressure;BME280_temperature;BME280_humidity;BME280_pressure;Samples;Min_cycle;Max_cycle;Signal;HPM_P1;HPM_P2
2024/01/28 00:01:33;;;;;;;17.50;10.63;;;1.80;18.10;;;;;;5068906;28;20469;-68
2024/01/28 00:04:00;;;;;;;18.47;11.57;;;1.80;18.10;;;;;;5071743;28;20445;-68
2024/01/28 00:06:27;;;;;;;20.47;12.50;;;1.80;18.10;;;;;;5073592;28;20460;-68
2024/01/28 00:08:54;;;;;;;21.30;12.37;;;1.80;17.90;;;;;;5068755;28;20461;-68
2024/01/28 00:11:22;;;;;;;28.97;14.73;;;1.70;18.00;;;;;;5073549;28;20991;-68
2024/01/28 00:13:48;;;;;;;19.00;11.20;;;1.70;18.20;;;;;;5075450;28;20455;-68
2024/01/28 00:16:15;;;;;;;21.13;11.60;;;1.70;18.10;;;;;;5071168;28;20481;-69
2024/01/28 00:18:42;;;;;;;17.10;10.63;;;1.70;18.20;;;;;;5077441;28;20837;-69
2024/01/28 00:21:09;;;;;;;17.90;12.57;;;1.70;18.20;;;;;;5071986;28;20453;-69
2024/01/28 00:23:36;;;;;;;19.63;10.57;;;1.70;18.40;;;;;;5066730;28;20468;-69
2024/01/28 00:26:03;;;;;;;21.67;11.97;;;1.70;18.60;;;;;;5073485;28;20460;-69
2024/01/28 00:28:31;;;;;;;20.93;12.03;;;1.70;18.70;;;;;;5073932;28;20480;-69
2024/01/28 00:30:58;;;;;;;30.43;12.47;;;1.70;18.70;;;;;;5073126;28;20473;-68
2024/01/28 00:33:24;;;;;;;18.90;11.63;;;1.70;18.70;;;;;;5074257;28;20453;-68
2024/01/28 00:35:51;;;;;;;18.20;11.73;;;1.70;18.80;;;;;;5073714;28;20477;-69
2024/01/28 00:38:18;;;;;;;23.37;11.70;;;1.70;18.80;;;;;;5071701;28;20498;-68
2024/01/28 00:40:44;;;;;;;18.63;11.10;;;1.70;18.80;;;;;;5067484;28;21164;-69
2024/01/28 00:43:11;;;;;;;20.17;11.70;;;1.70;18.90;;;;;;5074125;28;20456;-68
2024/01/28 00:45:40;;;;;;;17.77;11.83;;;1.70;18.80;;;;;;5071909;28;20876;-68
2024/01/28 00:48:07;;;;;;;28.97;12.77;;;1.70;18.70;;;;;;5072954;28;20480;-68
2024/01/28 00:50:34;;;;;;;22.47;12.10;;;1.70;18.90;;;;;;5072689;28;20463;-67
2024/01/28 00:53:00;;;;;;;19.33;11.33;;;1.70;18.90;;;;;;5066999;28;20472;-67
2024/01/28 00:55:28;;;;;;;19.30;11.40;;;1.70;19.10;;;;;;5067838;28;20484;-68
2024/01/28 00:57:55;;;;;;;24.30;13.70;;;1.70;18.90;;;;;;5070967;28;20473;-68
2024/01/28 01:00:22;;;;;;;18.23;10.80;;;1.70;19.10;;;;;;5070495;28;20468;-68
2024/01/28 01:02:52;;;;;;;20.00;12.43;;;1.60;19.10;;;;;;5074114;28;20800;-68
2024/01/28 01:05:18;;;;;;;18.90;10.90;;;1.60;19.10;;;;;;5070301;28;20815;-68
2024/01/28 01:07:45;;;;;;;22.17;10.97;;;1.60;19.10;;;;;;5071684;28;20481;-68
2024/01/28 01:10:12;;;;;;;19.83;12.40;;;1.60;19.20;;;;;;5070218;28;20469;-68
2024/01/28 01:13:00;;;;;;;24.87;13.90;;;1.60;19.30;;;;;;5075304;28;20841;-67
2024/01/28 01:15:27;;;;;;;24.03;11.97;;;1.60;19.40;;;;;;5065310;28;20477;-67
2024/01/28 01:17:56;;;;;;;21.10;13.20;;;1.60;19.40;;;;;;5072125;28;20477;-67
2024/01/28 01:20:23;;;;;;;20.83;11.90;;;1.60;19.40;;;;;;5070514;28;20461;-70
2024/01/28 01:22:49;;;;;;;18.70;11.40;;;1.50;19.50;;;;;;5071047;28;20472;-68
2024/01/28 01:25:16;;;;;;;18.23;11.60;;;1.50;19.40;;;;;;5069598;28;20449;-67
2024/01/28 01:27:45;;;;;;;17.30;11.60;;;1.50;19.60;;;;;;5069081;28;20474;-67
2024/01/28 01:30:13;;;;;;;20.13;10.83;;;1.50;19.50;;;;;;5063851;28;20972;-68
2024/01/28 01:32:40;;;;;;;22.23;11.70;;;1.50;19.20;;;;;;5063902;28;20492;-68
2024/01/28 01:35:09;;;;;;;16.77;11.10;;;1.50;19.40;;;;;;5063981;28;20481;-68
2024/01/28 01:37:36;;;;;;;23.10;12.07;;;1.50;19.30;;;;;;5069762;28;20482;-68
2024/01/28 01:40:04;;;;;;;17.20;10.83;;;1.40;19.10;;;;;;5067919;28;20454;-69
2024/01/28 01:42:30;;;;;;;20.00;12.10;;;1.40;19.10;;;;;;5071171;28;20458;-69
2024/01/28 01:44:57;;;;;;;22.70;10.90;;;1.40;19.00;;;;;;5068665;28;20460;-69
2024/01/28 01:47:25;;;;;;;16.40;11.30;;;1.30;19.10;;;;;;5067317;28;20488;-69
2024/01/28 01:49:53;;;;;;;20.40;11.40;;;1.30;19.30;;;;;;5072405;28;21282;-69
2024/01/28 01:52:22;;;;;;;20.00;12.23;;;1.30;19.40;;;;;;5068480;28;20453;-68
2024/01/28 01:54:50;;;;;;;20.03;11.70;;;1.30;19.30;;;;;;5070305;28;20453;-69
2024/01/28 01:57:18;;;;;;;24.33;12.10;;;1.30;19.40;;;;;;5067760;28;20978;-68
2024/01/28 01:59:47;;;;;;;17.60;10.87;;;1.30;19.20;;;;;;5071190;28;20457;-69
2024/01/28 02:02:13;;;;;;;23.47;11.80;;;1.30;19.10;;;;;;5064750;28;20480;-68
2024/01/28 02:04:40;;;;;;;16.80;11.10;;;1.30;19.00;;;;;;5067943;28;20454;-68
2024/01/28 02:07:07;;;;;;;18.97;11.67;;;1.30;19.20;;;;;;5065918;28;20481;-70
2024/01/28 02:09:36;;;;;;;22.07;11.97;;;1.20;19.30;;;;;;5069580;28;21135;-68
2024/01/28 02:12:03;;;;;;;16.97;10.97;;;1.20;19.10;;;;;;5070202;28;21206;-68
2024/01/28 02:14:31;;;;;;;21.57;12.73;;;1.20;19.00;;;;;;5074084;28;20461;-69
2024/01/28 02:16:59;;;;;;;22.67;13.10;;;1.10;19.30;;;;;;5072450;28;20513;-69
2024/01/28 02:19:27;;;;;;;21.97;12.30;;;1.10;19.00;;;;;;5065906;28;20985;-68
2024/01/28 02:21:53;;;;;;;20.80;12.77;;;1.10;19.00;;;;;;5069437;28;20477;-69
2024/01/28 02:24:21;;;;;;;20.83;12.40;;;1.10;19.10;;;;;;5068509;28;20456;-69
2024/01/28 02:26:48;;;;;;;21.70;11.97;;;1.10;19.20;;;;;;5066943;28;20492;-68
2024/01/28 02:29:15;;;;;;;21.50;12.40;;;1.00;19.30;;;;;;5072168;28;20453;-68
2024/01/28 02:31:42;;;;;;;21.37;12.40;;;1.00;19.40;;;;;;5065592;28;20984;-68
2024/01/28 02:34:08;;;;;;;19.17;12.03;;;1.00;19.50;;;;;;5067189;28;20456;-68
2024/01/28 02:36:35;;;;;;;21.10;13.97;;;1.00;19.50;;;;;;5072070;28;20492;-68
2024/01/28 02:39:02;;;;;;;26.10;13.93;;;1.00;19.40;;;;;;5068304;28;20449;-69
2024/01/28 02:41:30;;;;;;;19.23;12.23;;;1.00;19.40;;;;;;5066316;28;20460;-69
2024/01/28 02:43:57;;;;;;;16.73;11.83;;;1.00;19.50;;;;;;5071610;28;20445;-68
2024/01/28 02:46:24;;;;;;;22.77;13.30;;;1.00;19.30;;;;;;5079977;28;20444;-68
2024/01/28 02:48:51;;;;;;;22.43;12.83;;;1.00;19.30;;;;;;5096743;28;20461;-68
2024/01/28 02:51:18;;;;;;;18.70;11.50;;;1.00;19.40;;;;;;5081406;28;20864;-68
2024/01/28 02:53:44;;;;;;;21.43;11.77;;;1.00;19.40;;;;;;5070988;28;20464;-68
2024/01/28 02:56:11;;;;;;;19.60;12.30;;;0.90;19.40;;;;;;5068318;28;20488;-68
2024/01/28 02:58:39;;;;;;;24.40;13.37;;;0.90;19.30;;;;;;5066028;28;20508;-68
2024/01/28 03:01:06;;;;;;;25.20;11.90;;;0.90;19.30;;;;;;5073052;28;20479;-68
2024/01/28 03:03:32;;;;;;;21.90;12.87;;;0.90;19.30;;;;;;5071188;28;20465;-67
2024/01/28 03:05:59;;;;;;;22.10;12.47;;;0.90;19.30;;;;;;5068650;28;20805;-68
2024/01/28 03:08:26;;;;;;;24.27;12.27;;;0.90;19.50;;;;;;5065505;28;20498;-68
2024/01/28 03:10:52;;;;;;;18.53;12.80;;;0.90;19.40;;;;;;5071403;28;20458;-68
2024/01/28 03:13:19;;;;;;;22.37;12.10;;;0.90;19.70;;;;;;5066123;28;20485;-68
2024/01/28 03:15:50;;;;;;;22.33;12.20;;;0.90;19.70;;;;;;5072228;28;20488;-68
2024/01/28 03:18:17;;;;;;;20.87;12.40;;;0.80;19.80;;;;;;5064637;28;20507;-68
2024/01/28 03:20:43;;;;;;;24.27;11.43;;;0.80;19.90;;;;;;5065855;28;20938;-69
2024/01/28 03:23:10;;;;;;;22.90;12.13;;;0.80;19.90;;;;;;5071697;28;20449;-69
2024/01/28 03:25:37;;;;;;;24.30;12.60;;;0.80;20.00;;;;;;5072373;28;20449;-68
2024/01/28 03:28:05;;;;;;;20.37;11.00;;;0.80;20.00;;;;;;5070489;28;20473;-68
2024/01/28 03:30:32;;;;;;;22.77;11.77;;;0.80;19.80;;;;;;5068925;28;20509;-68
2024/01/28 03:33:00;;;;;;;20.93;10.07;;;0.80;19.80;;;;;;5075097;28;20454;-68
2024/01/28 03:35:27;;;;;;;20.10;10.83;;;0.80;19.80;;;;;;5070894;28;20445;-68
2024/01/28 03:37:53;;;;;;;23.03;12.63;;;0.80;19.60;;;;;;5071813;28;20496;-68
2024/01/28 03:40:20;;;;;;;20.33;11.60;;;0.80;19.90;;;;;;5068632;28;20453;-68
2024/01/28 03:42:47;;;;;;;19.03;11.40;;;0.80;19.90;;;;;;5070791;28;20506;-69
2024/01/28 03:45:14;;;;;;;16.90;10.87;;;0.80;19.80;;;;;;5064202;28;20818;-68
2024/01/28 03:47:40;;;;;;;19.60;10.43;;;0.80;19.80;;;;;;5063569;28;20469;-68
2024/01/28 03:50:09;;;;;;;22.47;11.23;;;0.80;19.70;;;;;;5064755;28;20457;-68
2024/01/28 03:52:36;;;;;;;18.00;11.03;;;0.70;19.70;;;;;;5068689;28;20449;-68
2024/01/28 03:55:03;;;;;;;27.60;11.50;;;0.70;19.70;;;;;;5066478;28;20471;-68
2024/01/28 03:57:30;;;;;;;22.87;11.80;;;0.70;19.70;;;;;;5070298;28;20489;-68
2024/01/28 03:59:56;;;;;;;14.67;10.20;;;0.80;19.70;;;;;;5069009;28;20453;-68
2024/01/28 04:02:23;;;;;;;19.30;11.20;;;0.70;19.70;;;;;;5068279;28;20461;-68
2024/01/28 04:04:50;;;;;;;24.73;12.57;;;0.70;19.80;;;;;;5068444;28;20821;-70
2024/01/28 04:07:18;;;;;;;16.20;11.50;;;0.70;19.80;;;;;;5067843;28;20469;-68
2024/01/28 04:09:44;;;;;;;18.47;11.53;;;0.70;19.70;;;;;;5067559;28;20457;-68
2024/01/28 04:12:11;;;;;;;22.37;11.10;;;0.70;19.60;;;;;;5070033;28;20453;-68
2024/01/28 04:14:38;;;;;;;23.63;11.40;;;0.70;19.60;;;;;;5067389;28;20468;-69
2024/01/28 04:17:05;;;;;;;18.67;10.37;;;0.70;19.60;;;;;;5073368;28;20488;-69
2024/01/28 04:19:32;;;;;;;16.60;11.13;;;0.70;19.70;;;;;;5066096;28;20933;-69
2024/01/28 04:21:59;;;;;;;18.87;10.30;;;0.70;19.70;;;;;;5068258;28;20449;-69
2024/01/28 04:24:27;;;;;;;19.47;11.60;;;0.70;19.60;;;;;;5069346;28;20465;-69
2024/01/28 04:26:55;;;;;;;19.70;11.97;;;0.70;19.80;;;;;;5070198;28;20482;-69
2024/01/28 04:29:22;;;;;;;19.50;11.30;;;0.70;19.70;;;;;;5073964;28;20479;-68
2024/01/28 04:31:49;;;;;;;23.53;12.70;;;0.70;19.60;;;;;;5070970;28;20465;-68
2024/01/28 04:34:16;;;;;;;20.00;11.13;;;0.70;19.50;;;;;;5073658;28;20448;-68
2024/01/28 04:36:43;;;;;;;21.33;11.70;;;0.70;19.70;;;;;;5071071;28;20503;-69
2024/01/28 04:39:10;;;;;;;24.73;12.73;;;0.60;19.50;;;;;;5071116;28;20457;-69
2024/01/28 04:41:38;;;;;;;20.40;13.30;;;0.60;19.60;;;;;;5069243;28;20454;-68
2024/01/28 04:44:05;;;;;;;19.77;11.83;;;0.60;19.60;;;;;;5064615;28;20465;-69
2024/01/28 04:46:32;;;;;;;22.17;13.70;;;0.60;19.90;;;;;;5068548;28;20485;-68
2024/01/28 04:49:00;;;;;;;18.30;11.03;;;0.60;20.00;;;;;;5076212;28;20449;-68
2024/01/28 04:51:28;;;;;;;18.80;11.73;;;0.50;20.10;;;;;;5073984;28;20510;-68
2024/01/28 04:53:55;;;;;;;22.53;10.70;;;0.50;20.60;;;;;;5071937;28;20483;-69
2024/01/28 04:56:21;;;;;;;18.80;11.70;;;0.50;20.00;;;;;;5069622;28;20493;-69
2024/01/28 04:58:50;;;;;;;20.60;12.30;;;0.50;20.10;;;;;;5074436;28;20450;-69
2024/01/28 05:01:16;;;;;;;23.47;11.67;;;0.50;20.10;;;;;;5070137;28;20465;-68
2024/01/28 05:03:43;;;;;;;18.40;10.50;;;0.50;20.00;;;;;;5073219;28;20453;-68
2024/01/28 05:06:10;;;;;;;17.90;11.60;;;0.50;20.00;;;;;;5070175;28;20464;-69
2024/01/28 05:08:37;;;;;;;20.97;10.73;;;0.50;20.00;;;;;;5067139;28;20827;-68
2024/01/28 05:11:04;;;;;;;23.10;11.20;;;0.50;19.90;;;;;;5078687;22;20505;-68
2024/01/28 05:13:30;;;;;;;21.57;10.10;;;0.50;20.00;;;;;;5049259;28;20457;-68
2024/01/28 05:15:58;;;;;;;19.43;10.57;;;0.50;19.90;;;;;;5045301;28;20457;-68
2024/01/28 05:18:26;;;;;;;21.13;10.57;;;0.50;20.00;;;;;;5048984;28;20478;-68
2024/01/28 05:20:52;;;;;;;21.33;10.93;;;0.40;20.10;;;;;;5052484;28;20481;-70
2024/01/28 05:23:19;;;;;;;25.20;13.90;;;0.50;20.20;;;;;;5047556;28;20466;-68
2024/01/28 05:25:46;;;;;;;23.87;10.83;;;0.40;20.20;;;;;;5049994;28;20454;-68
2024/01/28 05:28:12;;;;;;;19.60;10.43;;;0.40;20.10;;;;;;5054666;28;20480;-68
2024/01/28 05:30:39;;;;;;;19.73;11.27;;;0.50;20.00;;;;;;5048524;28;20501;-68
2024/01/28 05:33:07;;;;;;;14.90;9.50;;;0.50;20.00;;;;;;5049892;28;20465;-68
2024/01/28 05:35:33;;;;;;;24.30;10.23;;;0.40;20.00;;;;;;5048479;28;20470;-68
2024/01/28 05:38:00;;;;;;;16.87;10.87;;;0.30;20.00;;;;;;5045539;28;20548;-68
2024/01/28 05:40:27;;;;;;;20.83;10.57;;;0.20;20.00;;;;;;5051397;28;20234;-68
2024/01/28 05:42:53;;;;;;;19.33;10.80;;;0.20;20.00;;;;;;5051570;28;20476;-68
2024/01/28 05:45:20;;;;;;;20.33;11.77;;;0.20;19.90;;;;;;5051631;28;20457;-68
2024/01/28 05:47:47;;;;;;;20.70;12.10;;;0.20;19.90;;;;;;5050662;28;20478;-68
2024/01/28 05:50:15;;;;;;;29.80;13.50;;;0.20;20.20;;;;;;5049193;28;21065;-68
2024/01/28 05:52:42;;;;;;;27.23;13.20;;;0.20;20.50;;;;;;5052110;28;20458;-68
2024/01/28 05:55:08;;;;;;;30.60;14.60;;;0.10;20.90;;;;;;5045446;28;20482;-68
2024/01/28 05:57:35;;;;;;;34.73;13.00;;;0.20;20.90;;;;;;5052946;28;20490;-68
2024/01/28 06:00:03;;;;;;;26.83;14.40;;;0.10;21.70;;;;;;5050530;28;20473;-68
2024/01/28 06:02:29;;;;;;;38.70;14.57;;;0.10;22.10;;;;;;5049870;28;20466;-68
2024/01/28 06:04:56;;;;;;;76.20;16.63;;;0.10;22.20;;;;;;5048659;28;20458;-68
2024/01/28 06:07:24;;;;;;;31.23;14.63;;;0.20;22.30;;;;;;5046650;28;20898;-68
2024/01/28 06:09:51;;;;;;;63.00;14.90;;;0.10;22.50;;;;;;5043498;28;20474;-68
2024/01/28 06:12:18;;;;;;;37.57;15.00;;;0.10;22.90;;;;;;5049512;28;20466;-68
2024/01/28 06:14:45;;;;;;;35.50;14.87;;;0.00;23.20;;;;;;5050539;28;20494;-68
2024/01/28 06:17:12;;;;;;;39.10;14.13;;;0.10;23.30;;;;;;5050245;28;20481;-68
2024/01/28 06:19:38;;;;;;;42.00;15.17;;;0.10;22.90;;;;;;5050831;28;20460;-68
2024/01/28 06:22:05;;;;;;;62.97;15.30;;;0.10;23.20;;;;;;5049957;28;20849;-68
2024/01/28 06:24:35;;;;;;;42.07;15.10;;;0.10;23.40;;;;;;5044942;28;20470;-68
2024/01/28 06:27:02;;;;;;;26.50;14.47;;;0.10;23.60;;;;;;5047071;28;20493;-68
2024/01/28 06:29:28;;;;;;;30.50;13.20;;;0.10;23.90;;;;;;5049642;28;20994;-68
2024/01/28 06:31:55;;;;;;;30.13;14.40;;;0.20;23.50;;;;;;5044187;28;20477;-68
2024/01/28 06:34:22;;;;;;;31.27;13.67;;;0.20;23.20;;;;;;5049393;28;20576;-68
2024/01/28 06:36:50;;;;;;;25.83;14.87;;;0.20;23.40;;;;;;5044310;28;20481;-68
2024/01/28 06:39:16;;;;;;;38.13;16.87;;;0.30;23.20;;;;;;5044879;28;20552;-68
2024/01/28 06:41:45;;;;;;;25.77;15.77;;;0.30;23.10;;;;;;5047662;28;20454;-68
2024/01/28 06:44:12;;;;;;;28.30;15.67;;;0.30;23.00;;;;;;5046158;28;20480;-68
2024/01/28 06:46:39;;;;;;;35.20;14.97;;;0.40;22.50;;;;;;5047484;28;20544;-68
2024/01/28 06:49:06;;;;;;;25.50;14.80;;;0.40;22.70;;;;;;5048703;28;20465;-68
2024/01/28 06:51:32;;;;;;;36.47;13.37;;;0.40;22.80;;;;;;5046885;28;20454;-68
2024/01/28 06:53:59;;;;;;;24.83;15.53;;;0.40;23.30;;;;;;5049207;28;20458;-68
2024/01/28 06:56:26;;;;;;;34.23;18.53;;;0.40;23.20;;;;;;5047475;28;20931;-68
2024/01/28 06:58:54;;;;;;;57.07;22.70;;;0.40;23.40;;;;;;5048045;28;20469;-68
2024/01/28 07:01:20;;;;;;;37.43;17.17;;;0.40;23.30;;;;;;5048866;28;20482;-68
2024/01/28 07:03:47;;;;;;;59.13;18.70;;;0.40;23.50;;;;;;5048419;28;20961;-68
2024/01/28 07:06:15;;;;;;;69.83;14.07;;;0.30;23.90;;;;;;5047903;28;20458;-68
2024/01/28 07:08:41;;;;;;;40.80;14.70;;;0.30;24.00;;;;;;5046135;28;20853;-68
2024/01/28 07:11:08;;;;;;;55.30;15.87;;;0.30;24.20;;;;;;5048263;28;20840;-68
2024/01/28 07:13:35;;;;;;;33.93;15.90;;;0.40;24.00;;;;;;5049154;28;20519;-69
2024/01/28 07:16:03;;;;;;;42.60;15.50;;;0.30;24.40;;;;;;5050065;28;21016;-67
2024/01/28 07:18:30;;;;;;;29.60;18.23;;;0.40;24.60;;;;;;5050008;28;20514;-68
2024/01/28 07:20:57;;;;;;;53.43;28.97;;;0.40;24.60;;;;;;5048416;28;20463;-68
2024/01/28 07:23:23;;;;;;;59.70;33.30;;;0.50;24.70;;;;;;5049216;28;20450;-68
2024/01/28 07:25:50;;;;;;;31.80;24.30;;;0.50;24.80;;;;;;5047568;28;20454;-68
2024/01/28 07:28:17;;;;;;;72.30;25.90;;;0.60;24.60;;;;;;5045886;28;20465;-68
2024/01/28 07:30:44;;;;;;;37.63;21.27;;;0.60;24.50;;;;;;5048314;28;20469;-68
2024/01/28 07:33:13;;;;;;;41.43;23.73;;;0.70;24.70;;;;;;5048719;28;20504;-68
2024/01/28 07:35:39;;;;;;;43.33;18.53;;;0.80;24.50;;;;;;5051426;28;21061;-68
2024/01/28 07:38:06;;;;;;;48.63;20.03;;;0.80;24.40;;;;;;5046194;28;20498;-68
2024/01/28 07:40:33;;;;;;;72.07;17.53;;;0.90;24.40;;;;;;5046017;28;20469;-68
2024/01/28 07:42:59;;;;;;;57.03;18.37;;;0.90;24.40;;;;;;5050333;28;20983;-68
2024/01/28 07:45:26;;;;;;;30.53;17.47;;;1.00;24.60;;;;;;5048129;28;20465;-68
2024/01/28 07:47:53;;;;;;;31.57;16.60;;;1.10;24.30;;;;;;5045159;28;20482;-68
2024/01/28 07:50:21;;;;;;;27.33;15.23;;;1.20;24.10;;;;;;5048523;28;20455;-68
2024/01/28 07:52:48;;;;;;;41.10;14.67;;;1.30;24.30;;;;;;5052040;28;20460;-68
2024/01/28 07:55:15;;;;;;;30.60;14.90;;;1.40;23.70;;;;;;5047135;28;20469;-68
2024/01/28 07:57:42;;;;;;;50.07;16.33;;;1.50;24.10;;;;;;5051083;28;20521;-68
2024/01/28 08:00:10;;;;;;;38.40;14.97;;;1.50;24.00;;;;;;5049212;28;20461;-68
2024/01/28 08:02:37;;;;;;;41.10;14.00;;;1.60;23.80;;;;;;5051185;28;20966;-68
2024/01/28 08:05:04;;;;;;;45.53;15.03;;;1.70;23.50;;;;;;5051064;28;20466;-68
2024/01/28 08:07:32;;;;;;;27.80;14.10;;;1.70;23.40;;;;;;5050899;28;20490;-67
2024/01/28 08:09:59;;;;;;;33.13;14.27;;;1.70;23.40;;;;;;5048324;28;20488;-67
2024/01/28 08:12:26;;;;;;;25.07;13.90;;;1.70;23.20;;;;;;5044070;28;20469;-68
2024/01/28 08:14:52;;;;;;;29.30;16.03;;;1.80;23.10;;;;;;5044441;28;20832;-68
2024/01/28 08:17:19;;;;;;;36.27;19.93;;;1.80;22.90;;;;;;5053201;28;20486;-68
2024/01/28 08:19:46;;;;;;;20.23;12.90;;;1.80;22.80;;;;;;5048817;28;20454;-68
2024/01/28 08:22:13;;;;;;;32.20;13.13;;;1.90;22.40;;;;;;5041509;28;20549;-68
2024/01/28 08:24:41;;;;;;;35.37;14.10;;;2.00;22.20;;;;;;5048658;28;20469;-68
2024/01/28 08:27:07;;;;;;;30.27;14.70;;;2.00;22.00;;;;;;5049521;28;20860;-68
2024/01/28 08:29:34;;;;;;;34.37;13.57;;;2.00;21.90;;;;;;5051101;28;20469;-68
2024/01/28 08:32:01;;;;;;;26.33;13.37;;;2.00;21.90;;;;;;5045165;28;20484;-68
2024/01/28 08:34:27;;;;;;;55.83;13.70;;;2.10;21.60;;;;;;5049879;28;20473;-68
2024/01/28 08:36:54;;;;;;;24.00;11.90;;;2.10;21.50;;;;;;5048659;28;20478;-68
2024/01/28 08:39:21;;;;;;;30.47;12.27;;;2.20;21.30;;;;;;5064003;22;20489;-67
2024/01/28 08:41:49;;;;;;;24.73;11.93;;;2.30;20.90;;;;;;5052596;28;20946;-69
2024/01/28 08:44:18;;;;;;;20.33;12.93;;;2.30;20.80;;;;;;5049295;28;20470;-68
2024/01/28 08:46:46;;;;;;;21.97;13.60;;;2.50;20.80;;;;;;5042756;28;21054;-68
2024/01/28 08:49:12;;;;;;;26.93;12.60;;;2.60;20.40;;;;;;5031295;28;20451;-68
2024/01/28 08:51:40;;;;;;;33.40;13.10;;;2.70;20.00;;;;;;5039540;28;20435;-68
2024/01/28 08:54:07;;;;;;;32.50;13.17;;;2.70;20.00;;;;;;5058031;28;20455;-68
2024/01/28 08:56:34;;;;;;;25.50;14.20;;;2.60;19.90;;;;;;5044764;28;20469;-68
2024/01/28 08:59:02;;;;;;;41.93;14.90;;;2.70;19.80;;;;;;5029659;28;20912;-69
2024/01/28 09:01:28;;;;;;;27.20;13.93;;;2.80;19.70;;;;;;5030554;28;20471;-68
2024/01/28 09:03:55;;;;;;;39.57;14.80;;;2.80;19.90;;;;;;5029638;28;21153;-68
2024/01/28 09:06:22;;;;;;;53.17;14.23;;;2.80;19.70;;;;;;5030951;28;20461;-68
2024/01/28 09:08:49;;;;;;;38.90;14.07;;;2.90;19.70;;;;;;5031223;28;20462;-68
2024/01/28 09:11:15;;;;;;;39.97;13.13;;;2.90;19.40;;;;;;5033977;28;20467;-68
2024/01/28 09:13:42;;;;;;;23.77;13.43;;;2.80;19.30;;;;;;5033131;28;20466;-68
2024/01/28 09:16:11;;;;;;;31.97;12.30;;;2.80;19.40;;;;;;5030015;28;20842;-68
2024/01/28 09:18:42;;;;;;;33.67;13.47;;;2.80;19.50;;;;;;5030255;28;20482;-68
2024/01/28 09:21:09;;;;;;;63.70;14.47;;;2.90;19.40;;;;;;5030080;28;20509;-68
2024/01/28 09:23:35;;;;;;;57.47;14.13;;;2.90;19.70;;;;;;5032896;28;20459;-69
2024/01/28 09:26:02;;;;;;;21.33;12.73;;;2.80;18.90;;;;;;5033870;28;20486;-69
2024/01/28 09:28:29;;;;;;;25.27;13.13;;;2.90;18.90;;;;;;5030357;28;20483;-69
2024/01/28 09:30:56;;;;;;;21.50;13.40;;;2.90;19.10;;;;;;5033632;28;20471;-68
2024/01/28 09:33:24;;;;;;;29.60;13.60;;;2.90;19.10;;;;;;5030007;28;20846;-69
2024/01/28 09:35:52;;;;;;;30.83;15.10;;;3.00;19.00;;;;;;5028975;28;20469;-68
2024/01/28 09:38:19;;;;;;;21.43;12.47;;;3.00;19.10;;;;;;5028113;28;20577;-68
2024/01/28 09:40:45;;;;;;;91.70;17.60;;;3.00;19.10;;;;;;5030107;28;21066;-68
2024/01/28 09:43:19;;;;;;;24.13;13.07;;;3.00;19.10;;;;;;5029882;28;20542;-68
2024/01/28 09:45:46;;;;;;;26.77;13.90;;;3.10;19.00;;;;;;5031103;28;20462;-69
2024/01/28 09:48:13;;;;;;;53.37;14.80;;;3.10;18.90;;;;;;5030268;28;20486;-68
2024/01/28 09:50:42;;;;;;;50.23;15.80;;;3.20;18.60;;;;;;5021578;28;20471;-68
2024/01/28 09:53:10;;;;;;;56.67;15.03;;;3.20;18.70;;;;;;5027445;28;20465;-69
2024/01/28 09:55:36;;;;;;;51.63;13.37;;;3.10;18.60;;;;;;5024637;28;20463;-69
2024/01/28 09:58:03;;;;;;;23.60;12.57;;;3.00;18.40;;;;;;5018041;28;20483;-68
2024/01/28 10:00:30;;;;;;;20.00;11.77;;;3.00;18.50;;;;;;5022255;28;20475;-68
2024/01/28 10:02:57;;;;;;;27.40;13.10;;;3.00;18.70;;;;;;5026812;28;20467;-68
2024/01/28 10:05:24;;;;;;;19.53;13.53;;;3.00;18.90;;;;;;5026469;28;20492;-69
2024/01/28 10:08:00;;;;;;;21.93;13.80;;;3.10;19.10;;;;;;5028574;28;20501;-69
2024/01/28 10:10:27;;;;;;;47.03;14.43;;;3.20;19.00;;;;;;5026269;28;20490;-68
2024/01/28 10:12:55;;;;;;;33.27;13.83;;;3.20;18.70;;;;;;5027531;28;20463;-68
2024/01/28 10:15:23;;;;;;;21.83;13.93;;;3.10;18.40;;;;;;5029638;28;20962;-68
2024/01/28 10:17:50;;;;;;;22.93;15.43;;;3.10;18.50;;;;;;5031417;28;20490;-68
2024/01/28 10:20:18;;;;;;;18.73;12.80;;;3.10;18.70;;;;;;5025060;28;20471;-67
2024/01/28 10:22:45;;;;;;;22.43;12.93;;;3.20;18.40;;;;;;5028778;28;20947;-69
2024/01/28 10:25:15;;;;;;;32.90;13.43;;;3.30;18.20;;;;;;5026730;28;20464;-68
2024/01/28 10:27:42;;;;;;;21.07;13.17;;;3.30;18.10;;;;;;5026711;28;20895;-68
2024/01/28 10:30:11;;;;;;;27.27;13.07;;;3.30;18.10;;;;;;5026391;28;20459;-69
2024/01/28 10:32:38;;;;;;;71.60;15.03;;;3.30;18.10;;;;;;5028143;28;20482;-69
2024/01/28 10:35:07;;;;;;;29.03;13.57;;;3.30;18.00;;;;;;5028493;28;20474;-68
2024/01/28 10:37:34;;;;;;;51.43;16.17;;;3.30;18.00;;;;;;5030495;28;20474;-69
2024/01/28 10:40:05;;;;;;;25.00;14.73;;;3.30;17.80;;;;;;5029740;28;20835;-69
2024/01/28 10:42:38;;;;;;;29.03;14.50;;;3.30;18.00;;;;;;5029241;28;20542;-68
2024/01/28 10:45:07;;;;;;;66.63;15.80;;;3.30;18.20;;;;;;5030142;28;20484;-68
2024/01/28 10:47:36;;;;;;;37.63;14.20;;;3.30;18.10;;;;;;5029131;28;20835;-70
2024/01/28 10:50:07;;;;;;;34.20;14.43;;;3.40;18.10;;;;;;5028444;28;20498;-68
2024/01/28 10:52:35;;;;;;;21.60;14.20;;;3.40;18.20;;;;;;5028471;28;20463;-68
2024/01/28 10:55:02;;;;;;;19.73;13.73;;;3.40;18.30;;;;;;5028495;28;20545;-68
2024/01/28 10:57:29;;;;;;;25.23;14.30;;;3.50;18.30;;;;;;5025158;28;20495;-68
2024/01/28 10:59:59;;;;;;;30.93;14.17;;;3.60;18.20;;;;;;5027976;28;20493;-68
2024/01/28 11:02:26;;;;;;;20.93;13.33;;;3.60;18.10;;;;;;5028448;28;20482;-66
2024/01/28 11:04:54;;;;;;;23.80;13.87;;;3.70;18.00;;;;;;5029008;28;20839;-68
2024/01/28 11:07:21;;;;;;;36.90;14.00;;;3.80;17.90;;;;;;5029219;28;20882;-69
2024/01/28 11:09:49;;;;;;;21.00;13.37;;;3.80;17.80;;;;;;5027672;28;20463;-69
2024/01/28 11:12:16;;;;;;;25.67;13.40;;;3.90;17.80;;;;;;5024642;28;20488;-68
2024/01/28 11:14:44;;;;;;;22.50;13.70;;;3.90;17.50;;;;;;5035712;28;20453;-69
2024/01/28 11:17:13;;;;;;;24.33;14.70;;;3.90;17.30;;;;;;5025870;28;20478;-68
2024/01/28 11:19:39;;;;;;;35.20;16.60;;;3.90;17.20;;;;;;5027832;28;20489;-68
2024/01/28 11:22:14;;;;;;;17.83;13.63;;;3.90;17.10;;;;;;5022760;28;20462;-67
2024/01/28 11:24:53;;;;;;;25.23;13.97;;;4.00;17.20;;;;;;5026526;28;20470;-69
2024/01/28 11:27:20;;;;;;;35.90;13.20;;;4.00;17.30;;;;;;5025287;28;20490;-69
2024/01/28 11:29:47;;;;;;;20.27;13.40;;;4.00;17.10;;;;;;5024212;28;20463;-69
2024/01/28 11:32:16;;;;;;;20.53;14.20;;;4.00;16.90;;;;;;5020492;28;20479;-68
2024/01/28 11:34:45;;;;;;;17.27;12.83;;;4.10;17.10;;;;;;5031535;28;20506;-68
2024/01/28 11:37:15;;;;;;;24.73;14.03;;;4.20;17.00;;;;;;5011531;28;20498;-68
2024/01/28 11:39:46;;;;;;;20.90;13.00;;;4.30;16.80;;;;;;5026445;28;20537;-67
2024/01/28 11:42:13;;;;;;;23.80;13.37;;;4.30;16.70;;;;;;5027501;28;21184;-69
2024/01/28 11:44:42;;;;;;;18.83;13.80;;;4.40;16.70;;;;;;5028088;28;20885;-68
2024/01/28 11:47:13;;;;;;;31.17;14.50;;;4.40;16.60;;;;;;5025055;28;21045;-68
2024/01/28 11:49:43;;;;;;;19.83;13.30;;;4.50;16.40;;;;;;5032711;28;20574;-70
2024/01/28 11:52:11;;;;;;;30.87;13.70;;;4.30;16.00;;;;;;5026716;28;20478;-69
2024/01/28 11:54:38;;;;;;;24.23;13.70;;;4.30;16.00;;;;;;5041496;28;20455;-70
2024/01/28 11:57:05;;;;;;;30.43;13.70;;;4.30;16.10;;;;;;5056176;28;20482;-70
2024/01/28 11:59:33;;;;;;;20.63;14.37;;;4.40;16.30;;;;;;5038801;28;20637;-71
2024/01/28 12:02:01;;;;;;;26.83;14.63;;;4.50;16.30;;;;;;5031643;28;21023;-68
2024/01/28 12:04:27;;;;;;;21.53;13.87;;;4.60;16.00;;;;;;5028141;28;20469;-70
2024/01/28 12:06:56;;;;;;;43.47;14.57;;;4.60;15.60;;;;;;5028920;28;20867;-70
2024/01/28 12:09:22;;;;;;;19.63;12.20;;;4.60;15.40;;;;;;5026229;28;20538;-67
2024/01/28 12:11:49;;;;;;;14.77;11.07;;;4.50;15.40;;;;;;5028232;28;20459;-68
2024/01/28 12:14:16;;;;;;;14.70;11.10;;;4.60;15.40;;;;;;5026181;28;20463;-68
2024/01/28 12:16:43;;;;;;;15.87;11.03;;;4.60;15.10;;;;;;5031276;28;20889;-68
2024/01/28 12:19:12;;;;;;;22.37;11.53;;;4.70;15.00;;;;;;5028031;28;20498;-68
2024/01/28 12:21:40;;;;;;;13.50;10.10;;;4.80;14.90;;;;;;5027701;28;20501;-68
2024/01/28 12:24:10;;;;;;;15.57;11.50;;;4.80;14.80;;;;;;5031077;28;20825;-67
2024/01/28 12:26:37;;;;;;;14.63;10.77;;;5.00;14.90;;;;;;5027837;28;21146;-68
2024/01/28 12:29:04;;;;;;;16.80;11.50;;;5.00;14.60;;;;;;5029367;28;21250;-68
2024/01/28 12:31:31;;;;;;;17.70;12.10;;;5.00;14.20;;;;;;5025067;28;20479;-67
2024/01/28 12:33:58;;;;;;;16.33;11.00;;;5.00;14.20;;;;;;5020876;28;20521;-68
2024/01/28 12:36:25;;;;;;;21.17;12.13;;;5.00;14.10;;;;;;5024253;28;20471;-68